sensor_id;sensor_type;location;lat;lon;timestamp;P1;durP1;ratioP1;P2;durP2;ratioP2
24153;SDS011;12312;53.362;-1.518;2023-02-22T00:01:29;84.70;;;36.70;;
24153;SDS011;12312;53.362;-1.518;2023-02-22T00:04:14;81.22;;;35.88;;
24153;SDS011;12312;53.362;-1.518;2023-02-22T00:06:44;87.10;;;36.70;;
24153;SDS011;12312;53.362;-1.518;2023-02-22T00:09:10;91.30;;;38.97;;
24153;SDS011;12312;53.362;-1.518;2023-02-22T00:11:35;91.28;;;38.63;;
24153;SDS011;12312;53.362;-1.518;2023-02-22T00:14:02;89.50;;;38.13;;
24153;SDS011;12312;53.362;-1.518;2023-02-22T00:16:28;85.60;;;37.20;;
24153;SDS011;12312;53.362;-1.518;2023-02-22T00:18:55;87.72;;;37.92;;
24153;SDS011;12312;53.362;-1.518;2023-02-22T00:21:20;83.45;;;36.78;;
24153;SDS011;12312;53.362;-1.518;2023-02-22T00:23:46;71.60;;;32.97;;
24153;SDS011;12312;53.362;-1.518;2023-02-22T00:26:17;70.63;;;32.55;;
24153;SDS011;12312;53.362;-1.518;2023-02-22T00:28:45;69.75;;;31.63;;
24153;SDS011;12312;53.362;-1.518;2023-02-22T00:31:12;70.30;;;31.90;;
24153;SDS011;12312;53.362;-1.518;2023-02-22T00:33:38;63.42;;;30.40;;
24153;SDS011;12312;53.362;-1.518;2023-02-22T00:36:05;66.97;;;30.17;;
24153;SDS011;12312;53.362;-1.518;2023-02-22T00:38:30;65.35;;;30.58;;
24153;SDS011;12312;53.362;-1.518;2023-02-22T00:40:56;62.45;;;27.60;;
24153;SDS011;12312;53.362;-1.518;2023-02-22T00:43:21;58.00;;;28.45;;
24153;SDS011;12312;53.362;-1.518;2023-02-22T00:45:47;59.13;;;29.45;;
24153;SDS011;12312;53.362;-1.518;2023-02-22T00:48:13;55.90;;;28.40;;
24153;SDS011;12312;53.362;-1.518;2023-02-22T00:50:38;58.10;;;26.60;;
24153;SDS011;12312;53.362;-1.518;2023-02-22T00:53:04;52.75;;;25.30;;
24153;SDS011;12312;53.362;-1.518;2023-02-22T00:55:34;54.75;;;26.35;;
24153;SDS011;12312;53.362;-1.518;2023-02-22T00:58:01;59.10;;;28.83;;
24153;SDS011;12312;53.362;-1.518;2023-02-22T01:00:31;64.15;;;28.17;;
24153;SDS011;12312;53.362;-1.518;2023-02-22T01:03:02;59.22;;;27.73;;
24153;SDS011;12312;53.362;-1.518;2023-02-22T01:05:29;49.03;;;23.85;;
24153;SDS011;12312;53.362;-1.518;2023-02-22T01:07:55;52.63;;;26.13;;
24153;SDS011;12312;53.362;-1.518;2023-02-22T01:10:23;45.78;;;23.13;;
24153;SDS011;12312;53.362;-1.518;2023-02-22T01:12:50;57.95;;;27.23;;
24153;SDS011;12312;53.362;-1.518;2023-02-22T01:15:20;55.20;;;26.63;;
24153;SDS011;12312;53.362;-1.518;2023-02-22T01:17:48;54.17;;;26.40;;
24153;SDS011;12312;53.362;-1.518;2023-02-22T01:20:17;61.67;;;28.52;;
24153;SDS011;12312;53.362;-1.518;2023-02-22T01:22:45;61.00;;;27.75;;
24153;SDS011;12312;53.362;-1.518;2023-02-22T01:25:14;55.85;;;27.45;;
24153;SDS011;12312;53.362;-1.518;2023-02-22T01:27:42;58.28;;;25.98;;
24153;SDS011;12312;53.362;-1.518;2023-02-22T01:30:07;55.55;;;25.63;;
24153;SDS011;12312;53.362;-1.518;2023-02-22T01:32:37;50.97;;;24.83;;
24153;SDS011;12312;53.362;-1.518;2023-02-22T01:35:13;55.65;;;26.10;;
24153;SDS011;12312;53.362;-1.518;2023-02-22T01:37:42;50.60;;;24.75;;
24153;SDS011;12312;53.362;-1.518;2023-02-22T01:40:09;56.92;;;25.73;;
24153;SDS011;12312;53.362;-1.518;2023-02-22T01:42:40;54.70;;;24.77;;
24153;SDS011;12312;53.362;-1.518;2023-02-22T01:48:05;48.63;;;22.23;;
24153;SDS011;12312;53.362;-1.518;2023-02-22T01:50:38;50.47;;;24.42;;
24153;SDS011;12312;53.362;-1.518;2023-02-22T01:53:08;48.53;;;24.30;;
24153;SDS011;12312;53.362;-1.518;2023-02-22T01:55:35;50.03;;;23.52;;
24153;SDS011;12312;53.362;-1.518;2023-02-22T01:58:03;48.38;;;23.27;;
24153;SDS011;12312;53.362;-1.518;2023-02-22T02:00:31;50.28;;;24.30;;
24153;SDS011;12312;53.362;-1.518;2023-02-22T02:03:01;50.55;;;23.70;;
24153;SDS011;12312;53.362;-1.518;2023-02-22T02:05:30;55.70;;;26.20;;
24153;SDS011;12312;53.362;-1.518;2023-02-22T02:07:58;51.08;;;23.48;;
24153;SDS011;12312;53.362;-1.518;2023-02-22T02:10:29;51.78;;;24.70;;
24153;SDS011;12312;53.362;-1.518;2023-02-22T02:12:56;56.00;;;25.85;;
24153;SDS011;12312;53.362;-1.518;2023-02-22T02:15:25;62.67;;;26.92;;
24153;SDS011;12312;53.362;-1.518;2023-02-22T02:17:56;54.30;;;26.70;;
24153;SDS011;12312;53.362;-1.518;2023-02-22T02:20:33;61.00;;;27.25;;
24153;SDS011;12312;53.362;-1.518;2023-02-22T02:37:10;57.85;;;26.77;;
24153;SDS011;12312;53.362;-1.518;2023-02-22T02:39:50;53.97;;;24.77;;
24153;SDS011;12312;53.362;-1.518;2023-02-22T02:42:43;52.90;;;23.42;;
24153;SDS011;12312;53.362;-1.518;2023-02-22T02:45:25;50.00;;;22.50;;
24153;SDS011;12312;53.362;-1.518;2023-02-22T02:47:58;41.75;;;20.13;;
24153;SDS011;12312;53.362;-1.518;2023-02-22T02:50:34;44.42;;;21.15;;
24153;SDS011;12312;53.362;-1.518;2023-02-22T02:53:06;36.10;;;17.25;;
24153;SDS011;12312;53.362;-1.518;2023-02-22T02:55:33;32.63;;;15.60;;
24153;SDS011;12312;53.362;-1.518;2023-02-22T02:58:02;29.55;;;14.77;;
24153;SDS011;12312;53.362;-1.518;2023-02-22T03:00:36;24.52;;;12.43;;
24153;SDS011;12312;53.362;-1.518;2023-02-22T03:03:13;27.35;;;14.18;;
24153;SDS011;12312;53.362;-1.518;2023-02-22T03:11:19;26.38;;;12.57;;
24153;SDS011;12312;53.362;-1.518;2023-02-22T03:24:16;20.98;;;11.45;;
24153;SDS011;12312;53.362;-1.518;2023-02-22T03:27:08;20.40;;;9.82;;
24153;SDS011;12312;53.362;-1.518;2023-02-22T03:29:50;18.23;;;11.00;;
24153;SDS011;12312;53.362;-1.518;2023-02-22T03:32:21;19.65;;;11.65;;
24153;SDS011;12312;53.362;-1.518;2023-02-22T03:35:00;18.35;;;11.10;;
24153;SDS011;12312;53.362;-1.518;2023-02-22T03:37:34;21.77;;;11.02;;
24153;SDS011;12312;53.362;-1.518;2023-02-22T03:40:05;20.15;;;10.60;;
24153;SDS011;12312;53.362;-1.518;2023-02-22T03:42:39;17.75;;;10.50;;
24153;SDS011;12312;53.362;-1.518;2023-02-22T03:45:10;18.92;;;11.30;;
24153;SDS011;12312;53.362;-1.518;2023-02-22T03:47:44;18.42;;;10.65;;
24153;SDS011;12312;53.362;-1.518;2023-02-22T03:50:27;17.50;;;9.73;;
24153;SDS011;12312;53.362;-1.518;2023-02-22T03:52:59;17.48;;;9.60;;
24153;SDS011;12312;53.362;-1.518;2023-02-22T03:55:25;19.33;;;9.77;;
24153;SDS011;12312;53.362;-1.518;2023-02-22T03:57:59;16.65;;;11.40;;
24153;SDS011;12312;53.362;-1.518;2023-02-22T04:00:30;16.00;;;8.75;;
24153;SDS011;12312;53.362;-1.518;2023-02-22T04:02:57;17.30;;;8.55;;
24153;SDS011;12312;53.362;-1.518;2023-02-22T04:05:23;16.30;;;9.07;;
24153;SDS011;12312;53.362;-1.518;2023-02-22T04:07:53;20.80;;;10.35;;
24153;SDS011;12312;53.362;-1.518;2023-02-22T04:10:19;16.58;;;9.32;;
24153;SDS011;12312;53.362;-1.518;2023-02-22T04:12:46;17.88;;;9.75;;
24153;SDS011;12312;53.362;-1.518;2023-02-22T04:15:13;17.90;;;9.70;;
24153;SDS011;12312;53.362;-1.518;2023-02-22T04:17:40;16.48;;;9.30;;
24153;SDS011;12312;53.362;-1.518;2023-02-22T04:20:06;18.83;;;9.35;;
24153;SDS011;12312;53.362;-1.518;2023-02-22T04:22:32;15.40;;;8.68;;
24153;SDS011;12312;53.362;-1.518;2023-02-22T04:24:57;14.85;;;8.73;;
24153;SDS011;12312;53.362;-1.518;2023-02-22T04:27:23;14.10;;;8.65;;
24153;SDS011;12312;53.362;-1.518;2023-02-22T04:29:48;18.02;;;9.15;;
24153;SDS011;12312;53.362;-1.518;2023-02-22T04:32:14;16.52;;;8.95;;
24153;SDS011;12312;53.362;-1.518;2023-02-22T04:34:40;13.25;;;7.93;;
24153;SDS011;12312;53.362;-1.518;2023-02-22T04:37:05;21.08;;;10.13;;
24153;SDS011;12312;53.362;-1.518;2023-02-22T04:39:31;15.75;;;9.43;;
24153;SDS011;12312;53.362;-1.518;2023-02-22T04:41:57;19.00;;;8.52;;
24153;SDS011;12312;53.362;-1.518;2023-02-22T04:44:23;16.50;;;9.40;;
24153;SDS011;12312;53.362;-1.518;2023-02-22T04:46:48;16.17;;;9.27;;
24153;SDS011;12312;53.362;-1.518;2023-02-22T04:49:14;17.60;;;9.38;;
24153;SDS011;12312;53.362;-1.518;2023-02-22T04:51:39;17.38;;;9.70;;
24153;SDS011;12312;53.362;-1.518;2023-02-22T04:54:06;17.35;;;9.95;;
24153;SDS011;12312;53.362;-1.518;2023-02-22T04:56:32;17.00;;;9.30;;
24153;SDS011;12312;53.362;-1.518;2023-02-22T04:58:58;20.35;;;9.52;;
24153;SDS011;12312;53.362;-1.518;2023-02-22T05:01:23;16.17;;;9.00;;
24153;SDS011;12312;53.362;-1.518;2023-02-22T05:03:49;17.95;;;9.07;;
24153;SDS011;12312;53.362;-1.518;2023-02-22T05:06:15;18.13;;;9.63;;
24153;SDS011;12312;53.362;-1.518;2023-02-22T05:08:42;16.73;;;9.30;;
24153;SDS011;12312;53.362;-1.518;2023-02-22T05:11:07;20.70;;;10.15;;
24153;SDS011;12312;53.362;-1.518;2023-02-22T05:13:33;18.73;;;10.70;;
24153;SDS011;12312;53.362;-1.518;2023-02-22T05:15:59;17.98;;;10.00;;
24153;SDS011;12312;53.362;-1.518;2023-02-22T05:18:25;18.73;;;9.85;;
24153;SDS011;12312;53.362;-1.518;2023-02-22T05:20:51;14.68;;;8.73;;
24153;SDS011;12312;53.362;-1.518;2023-02-22T05:23:16;14.90;;;9.05;;
24153;SDS011;12312;53.362;-1.518;2023-02-22T05:25:42;16.52;;;8.55;;
24153;SDS011;12312;53.362;-1.518;2023-02-22T05:28:10;15.15;;;8.68;;
24153;SDS011;12312;53.362;-1.518;2023-02-22T05:30:37;16.25;;;9.05;;
24153;SDS011;12312;53.362;-1.518;2023-02-22T05:33:04;15.18;;;9.00;;
24153;SDS011;12312;53.362;-1.518;2023-02-22T05:35:30;14.38;;;7.40;;
24153;SDS011;12312;53.362;-1.518;2023-02-22T05:37:56;13.32;;;8.60;;
24153;SDS011;12312;53.362;-1.518;2023-02-22T05:40:23;15.00;;;8.40;;
24153;SDS011;12312;53.362;-1.518;2023-02-22T05:42:50;13.20;;;7.63;;
24153;SDS011;12312;53.362;-1.518;2023-02-22T05:45:18;13.80;;;7.72;;
24153;SDS011;12312;53.362;-1.518;2023-02-22T05:47:45;18.13;;;8.00;;
24153;SDS011;12312;53.362;-1.518;2023-02-22T05:50:11;12.65;;;7.95;;
24153;SDS011;12312;53.362;-1.518;2023-02-22T05:52:37;11.48;;;6.93;;
24153;SDS011;12312;53.362;-1.518;2023-02-22T05:55:04;13.18;;;7.28;;
24153;SDS011;12312;53.362;-1.518;2023-02-22T05:57:31;15.55;;;8.27;;
24153;SDS011;12312;53.362;-1.518;2023-02-22T05:59:56;15.00;;;7.68;;
24153;SDS011;12312;53.362;-1.518;2023-02-22T06:02:22;19.13;;;8.55;;
24153;SDS011;12312;53.362;-1.518;2023-02-22T06:04:47;15.25;;;8.45;;
24153;SDS011;12312;53.362;-1.518;2023-02-22T06:07:13;15.85;;;8.32;;
24153;SDS011;12312;53.362;-1.518;2023-02-22T06:09:39;14.80;;;8.20;;
24153;SDS011;12312;53.362;-1.518;2023-02-22T06:12:05;15.75;;;8.20;;
24153;SDS011;12312;53.362;-1.518;2023-02-22T06:14:31;16.52;;;8.70;;
24153;SDS011;12312;53.362;-1.518;2023-02-22T06:16:57;14.15;;;8.13;;
24153;SDS011;12312;53.362;-1.518;2023-02-22T06:19:23;16.00;;;8.73;;
24153;SDS011;12312;53.362;-1.518;2023-02-22T06:21:52;15.55;;;8.60;;
24153;SDS011;12312;53.362;-1.518;2023-02-22T06:24:20;16.65;;;8.25;;
24153;SDS011;12312;53.362;-1.518;2023-02-22T06:26:46;14.00;;;8.15;;
24153;SDS011;12312;53.362;-1.518;2023-02-22T06:29:19;13.95;;;7.30;;
24153;SDS011;12312;53.362;-1.518;2023-02-22T06:31:44;15.63;;;8.38;;
24153;SDS011;12312;53.362;-1.518;2023-02-22T06:34:10;18.02;;;10.10;;
24153;SDS011;12312;53.362;-1.518;2023-02-22T06:36:35;15.70;;;8.15;;
24153;SDS011;12312;53.362;-1.518;2023-02-22T06:39:01;16.20;;;7.68;;
24153;SDS011;12312;53.362;-1.518;2023-02-22T06:41:26;17.90;;;9.50;;
24153;SDS011;12312;53.362;-1.518;2023-02-22T06:43:51;17.55;;;8.95;;
24153;SDS011;12312;53.362;-1.518;2023-02-22T06:46:17;19.05;;;10.23;;
24153;SDS011;12312;53.362;-1.518;2023-02-22T06:48:43;18.30;;;9.63;;
24153;SDS011;12312;53.362;-1.518;2023-02-22T06:51:08;17.55;;;9.27;;
24153;SDS011;12312;53.362;-1.518;2023-02-22T06:53:34;18.13;;;10.13;;
24153;SDS011;12312;53.362;-1.518;2023-02-22T06:56:00;16.80;;;10.13;;
24153;SDS011;12312;53.362;-1.518;2023-02-22T06:58:26;14.70;;;8.57;;
24153;SDS011;12312;53.362;-1.518;2023-02-22T07:00:52;18.70;;;10.35;;
24153;SDS011;12312;53.362;-1.518;2023-02-22T07:03:17;21.15;;;9.57;;
24153;SDS011;12312;53.362;-1.518;2023-02-22T07:05:43;24.48;;;11.10;;
24153;SDS011;12312;53.362;-1.518;2023-02-22T07:08:09;19.85;;;9.43;;
24153;SDS011;12312;53.362;-1.518;2023-02-22T07:10:36;17.00;;;9.73;;
24153;SDS011;12312;53.362;-1.518;2023-02-22T07:13:02;15.65;;;9.95;;
24153;SDS011;12312;53.362;-1.518;2023-02-22T07:15:30;16.70;;;10.57;;
24153;SDS011;12312;53.362;-1.518;2023-02-22T07:17:57;16.95;;;9.95;;
24153;SDS011;12312;53.362;-1.518;2023-02-22T07:20:23;17.75;;;9.95;;
24153;SDS011;12312;53.362;-1.518;2023-02-22T07:22:50;17.13;;;9.55;;
24153;SDS011;12312;53.362;-1.518;2023-02-22T07:25:16;19.67;;;10.48;;
24153;SDS011;12312;53.362;-1.518;2023-02-22T07:27:43;18.52;;;10.30;;
24153;SDS011;12312;53.362;-1.518;2023-02-22T07:30:17;17.23;;;9.40;;
24153;SDS011;12312;53.362;-1.518;2023-02-22T07:32:50;19.42;;;9.52;;
24153;SDS011;12312;53.362;-1.518;2023-02-22T07:35:19;23.67;;;11.00;;
24153;SDS011;12312;53.362;-1.518;2023-02-22T07:37:49;17.80;;;9.63;;
24153;SDS011;12312;53.362;-1.518;2023-02-22T07:40:15;17.48;;;10.20;;
24153;SDS011;12312;53.362;-1.518;2023-02-22T07:42:52;20.83;;;10.23;;
24153;SDS011;12312;53.362;-1.518;2023-02-22T07:45:31;15.05;;;8.57;;
24153;SDS011;12312;53.362;-1.518;2023-02-22T07:47:57;17.60;;;9.85;;
24153;SDS011;12312;53.362;-1.518;2023-02-22T07:50:26;15.55;;;9.07;;
24153;SDS011;12312;53.362;-1.518;2023-02-22T07:52:55;13.68;;;8.45;;
24153;SDS011;12312;53.362;-1.518;2023-02-22T07:55:22;16.05;;;9.32;;
24153;SDS011;12312;53.362;-1.518;2023-02-22T07:57:50;14.60;;;8.55;;
24153;SDS011;12312;53.362;-1.518;2023-02-22T08:00:21;14.95;;;8.80;;
24153;SDS011;12312;53.362;-1.518;2023-02-22T08:02:48;12.48;;;7.30;;
24153;SDS011;12312;53.362;-1.518;2023-02-22T08:05:14;14.65;;;8.18;;
24153;SDS011;12312;53.362;-1.518;2023-02-22T08:07:39;13.48;;;7.72;;
24153;SDS011;12312;53.362;-1.518;2023-02-22T08:10:06;14.38;;;7.55;;
24153;SDS011;12312;53.362;-1.518;2023-02-22T08:12:33;15.18;;;8.15;;
24153;SDS011;12312;53.362;-1.518;2023-02-22T08:14:59;17.42;;;9.55;;
24153;SDS011;12312;53.362;-1.518;2023-02-22T08:17:24;18.23;;;9.98;;
24153;SDS011;12312;53.362;-1.518;2023-02-22T08:19:50;15.32;;;9.82;;
24153;SDS011;12312;53.362;-1.518;2023-02-22T08:22:15;19.85;;;11.68;;
24153;SDS011;12312;53.362;-1.518;2023-02-22T08:24:41;19.50;;;11.95;;
24153;SDS011;12312;53.362;-1.518;2023-02-22T08:27:06;24.35;;;12.70;;
24153;SDS011;12312;53.362;-1.518;2023-02-22T08:29:32;25.92;;;15.20;;
24153;SDS011;12312;53.362;-1.518;2023-02-22T08:32:01;26.40;;;14.90;;
24153;SDS011;12312;53.362;-1.518;2023-02-22T08:34:27;25.80;;;14.82;;
24153;SDS011;12312;53.362;-1.518;2023-02-22T08:36:53;26.10;;;16.02;;
24153;SDS011;12312;53.362;-1.518;2023-02-22T08:39:19;26.35;;;16.42;;
24153;SDS011;12312;53.362;-1.518;2023-02-22T08:41:45;27.73;;;17.63;;
24153;SDS011;12312;53.362;-1.518;2023-02-22T08:44:10;25.60;;;15.00;;
24153;SDS011;12312;53.362;-1.518;2023-02-22T08:46:36;21.38;;;13.45;;
24153;SDS011;12312;53.362;-1.518;2023-02-22T08:49:03;18.83;;;11.63;;
24153;SDS011;12312;53.362;-1.518;2023-02-22T08:51:29;14.85;;;10.05;;
24153;SDS011;12312;53.362;-1.518;2023-02-22T08:54:00;12.93;;;8.65;;
24153;SDS011;12312;53.362;-1.518;2023-02-22T08:56:25;10.50;;;7.22;;
24153;SDS011;12312;53.362;-1.518;2023-02-22T08:58:51;10.80;;;6.95;;
24153;SDS011;12312;53.362;-1.518;2023-02-22T09:01:16;11.02;;;7.45;;
24153;SDS011;12312;53.362;-1.518;2023-02-22T09:03:42;10.75;;;7.50;;
24153;SDS011;12312;53.362;-1.518;2023-02-22T09:06:11;11.27;;;7.75;;
24153;SDS011;12312;53.362;-1.518;2023-02-22T09:08:37;10.93;;;7.25;;
24153;SDS011;12312;53.362;-1.518;2023-02-22T09:11:02;8.25;;;5.47;;
24153;SDS011;12312;53.362;-1.518;2023-02-22T09:13:28;9.38;;;6.53;;
24153;SDS011;12312;53.362;-1.518;2023-02-22T09:15:53;11.02;;;7.68;;
24153;SDS011;12312;53.362;-1.518;2023-02-22T09:18:19;9.20;;;6.30;;
24153;SDS011;12312;53.362;-1.518;2023-02-22T09:20:45;8.95;;;5.88;;
24153;SDS011;12312;53.362;-1.518;2023-02-22T09:23:10;9.13;;;6.22;;
24153;SDS011;12312;53.362;-1.518;2023-02-22T09:25:36;10.02;;;6.15;;
24153;SDS011;12312;53.362;-1.518;2023-02-22T09:28:05;9.57;;;5.75;;
24153;SDS011;12312;53.362;-1.518;2023-02-22T09:30:32;9.93;;;6.32;;
24153;SDS011;12312;53.362;-1.518;2023-02-22T09:33:00;9.07;;;5.75;;
24153;SDS011;12312;53.362;-1.518;2023-02-22T09:35:29;8.82;;;6.20;;
24153;SDS011;12312;53.362;-1.518;2023-02-22T09:37:56;8.50;;;6.20;;
24153;SDS011;12312;53.362;-1.518;2023-02-22T09:40:23;8.95;;;5.82;;
24153;SDS011;12312;53.362;-1.518;2023-02-22T09:42:55;6.82;;;4.35;;
24153;SDS011;12312;53.362;-1.518;2023-02-22T09:45:56;7.88;;;4.55;;
24153;SDS011;12312;53.362;-1.518;2023-02-22T09:48:30;7.72;;;4.65;;
24153;SDS011;12312;53.362;-1.518;2023-02-22T09:51:00;7.88;;;4.97;;
24153;SDS011;12312;53.362;-1.518;2023-02-22T09:53:34;7.80;;;4.72;;
24153;SDS011;12312;53.362;-1.518;2023-02-22T09:56:07;7.93;;;4.55;;
24153;SDS011;12312;53.362;-1.518;2023-02-22T09:58:37;8.25;;;4.50;;
24153;SDS011;12312;53.362;-1.518;2023-02-22T10:07:00;3.17;;;2.35;;
24153;SDS011;12312;53.362;-1.518;2023-02-22T10:09:30;4.30;;;2.10;;
24153;SDS011;12312;53.362;-1.518;2023-02-22T10:12:22;2.72;;;1.98;;
24153;SDS011;12312;53.362;-1.518;2023-02-22T10:20:53;3.38;;;1.40;;
24153;SDS011;12312;53.362;-1.518;2023-02-22T10:23:28;3.85;;;1.27;;
24153;SDS011;12312;53.362;-1.518;2023-02-22T10:26:08;1.60;;;1.10;;
24153;SDS011;12312;53.362;-1.518;2023-02-22T10:28:41;1.35;;;1.23;;
24153;SDS011;12312;53.362;-1.518;2023-02-22T10:31:29;1.33;;;1.13;;
24153;SDS011;12312;53.362;-1.518;2023-02-22T10:34:10;1.30;;;1.00;;
24153;SDS011;12312;53.362;-1.518;2023-02-22T10:36:40;1.13;;;0.90;;
24153;SDS011;12312;53.362;-1.518;2023-02-22T10:39:26;1.77;;;0.80;;
24153;SDS011;12312;53.362;-1.518;2023-02-22T10:41:57;1.17;;;1.08;;
24153;SDS011;12312;53.362;-1.518;2023-02-22T10:44:32;2.97;;;1.13;;
24153;SDS011;12312;53.362;-1.518;2023-02-22T10:46:59;2.35;;;0.70;;
24153;SDS011;12312;53.362;-1.518;2023-02-22T10:49:26;2.00;;;0.90;;
24153;SDS011;12312;53.362;-1.518;2023-02-22T10:52:16;1.83;;;0.93;;
24153;SDS011;12312;53.362;-1.518;2023-02-22T10:54:47;1.45;;;0.80;;
24153;SDS011;12312;53.362;-1.518;2023-02-22T10:57:18;3.05;;;0.90;;
24153;SDS011;12312;53.362;-1.518;2023-02-22T10:59:49;2.40;;;0.98;;
24153;SDS011;12312;53.362;-1.518;2023-02-22T11:02:29;2.35;;;0.70;;
24153;SDS011;12312;53.362;-1.518;2023-02-22T11:04:57;2.63;;;1.08;;
24153;SDS011;12312;53.362;-1.518;2023-02-22T11:07:31;2.90;;;1.25;;
24153;SDS011;12312;53.362;-1.518;2023-02-22T11:10:00;4.27;;;0.80;;
24153;SDS011;12312;53.362;-1.518;2023-02-22T11:17:46;0.85;;;0.70;;
24153;SDS011;12312;53.362;-1.518;2023-02-22T11:20:20;4.22;;;0.80;;
24153;SDS011;12312;53.362;-1.518;2023-02-22T11:22:57;3.78;;;0.80;;
24153;SDS011;12312;53.362;-1.518;2023-02-22T11:25:26;6.60;;;5.93;;
24153;SDS011;12312;53.362;-1.518;2023-02-22T11:27:54;3.17;;;0.77;;
24153;SDS011;12312;53.362;-1.518;2023-02-22T11:30:32;3.55;;;0.80;;
24153;SDS011;12312;53.362;-1.518;2023-02-22T11:33:02;1.83;;;0.90;;
24153;SDS011;12312;53.362;-1.518;2023-02-22T11:43:52;2.88;;;1.10;;
24153;SDS011;12312;53.362;-1.518;2023-02-22T11:48:55;5.10;;;0.90;;
24153;SDS011;12312;53.362;-1.518;2023-02-22T11:59:58;1.73;;;0.80;;
24153;SDS011;12312;53.362;-1.518;2023-02-22T12:19:32;2.10;;;0.70;;
24153;SDS011;12312;53.362;-1.518;2023-02-22T12:22:09;2.75;;;0.95;;
24153;SDS011;12312;53.362;-1.518;2023-02-22T12:24:48;2.40;;;0.68;;
24153;SDS011;12312;53.362;-1.518;2023-02-22T12:33:34;2.50;;;1.10;;
24153;SDS011;12312;53.362;-1.518;2023-02-22T12:35:40;5.07;;;1.00;;
24153;SDS011;12312;53.362;-1.518;2023-02-22T12:38:29;5.28;;;1.13;;
24153;SDS011;12312;53.362;-1.518;2023-02-22T12:41:07;5.03;;;1.23;;
24153;SDS011;12312;53.362;-1.518;2023-02-22T12:44:03;4.32;;;1.20;;
24153;SDS011;12312;53.362;-1.518;2023-02-22T12:46:41;2.25;;;0.98;;
24153;SDS011;12312;53.362;-1.518;2023-02-22T12:59:48;2.20;;;0.80;;
24153;SDS011;12312;53.362;-1.518;2023-02-22T13:05:14;2.92;;;0.93;;
24153;SDS011;12312;53.362;-1.518;2023-02-22T13:07:56;2.97;;;1.00;;
24153;SDS011;12312;53.362;-1.518;2023-02-22T13:10:37;3.75;;;0.77;;
24153;SDS011;12312;53.362;-1.518;2023-02-22T13:18:54;4.18;;;0.93;;
24153;SDS011;12312;53.362;-1.518;2023-02-22T13:21:28;3.45;;;1.05;;
24153;SDS011;12312;53.362;-1.518;2023-02-22T13:26:42;2.42;;;0.90;;
24153;SDS011;12312;53.362;-1.518;2023-02-22T13:29:19;5.22;;;1.20;;
24153;SDS011;12312;53.362;-1.518;2023-02-22T13:42:40;3.90;;;0.90;;
24153;SDS011;12312;53.362;-1.518;2023-02-22T13:53:03;6.38;;;1.00;;
24153;SDS011;12312;53.362;-1.518;2023-02-22T13:55:34;5.03;;;1.63;;
24153;SDS011;12312;53.362;-1.518;2023-02-22T13:58:06;3.75;;;1.02;;
24153;SDS011;12312;53.362;-1.518;2023-02-22T14:00:43;4.82;;;1.02;;
24153;SDS011;12312;53.362;-1.518;2023-02-22T14:16:23;3.70;;;0.80;;
24153;SDS011;12312;53.362;-1.518;2023-02-22T14:18:59;1.98;;;0.70;;
24153;SDS011;12312;53.362;-1.518;2023-02-22T14:21:37;0.45;;;0.45;;
24153;SDS011;12312;53.362;-1.518;2023-02-22T14:24:18;1.38;;;0.60;;
24153;SDS011;12312;53.362;-1.518;2023-02-22T14:26:54;3.67;;;0.68;;
24153;SDS011;12312;53.362;-1.518;2023-02-22T14:29:22;2.38;;;0.90;;
24153;SDS011;12312;53.362;-1.518;2023-02-22T14:34:18;4.00;;;0.80;;
24153;SDS011;12312;53.362;-1.518;2023-02-22T14:36:47;2.55;;;0.90;;
24153;SDS011;12312;53.362;-1.518;2023-02-22T14:44:42;1.50;;;0.90;;
24153;SDS011;12312;53.362;-1.518;2023-02-22T14:47:23;2.42;;;0.93;;
24153;SDS011;12312;53.362;-1.518;2023-02-22T14:50:03;1.92;;;0.88;;
24153;SDS011;12312;53.362;-1.518;2023-02-22T14:52:34;2.20;;;0.80;;
24153;SDS011;12312;53.362;-1.518;2023-02-22T14:55:05;1.88;;;0.73;;
24153;SDS011;12312;53.362;-1.518;2023-02-22T15:00:24;2.55;;;0.82;;
24153;SDS011;12312;53.362;-1.518;2023-02-22T15:02:58;2.53;;;0.88;;
24153;SDS011;12312;53.362;-1.518;2023-02-22T15:05:25;4.32;;;1.00;;
24153;SDS011;12312;53.362;-1.518;2023-02-22T15:08:01;0.82;;;0.80;;
24153;SDS011;12312;53.362;-1.518;2023-02-22T15:10:49;3.13;;;0.85;;
24153;SDS011;12312;53.362;-1.518;2023-02-22T15:13:16;2.47;;;1.15;;
24153;SDS011;12312;53.362;-1.518;2023-02-22T15:15:48;10.35;;;5.03;;
24153;SDS011;12312;53.362;-1.518;2023-02-22T15:21:02;13.13;;;7.93;;
24153;SDS011;12312;53.362;-1.518;2023-02-22T15:23:43;14.07;;;7.43;;
24153;SDS011;12312;53.362;-1.518;2023-02-22T15:28:59;7.70;;;3.60;;
24153;SDS011;12312;53.362;-1.518;2023-02-22T15:31:30;5.80;;;3.22;;
24153;SDS011;12312;53.362;-1.518;2023-02-22T15:36:41;2.63;;;1.23;;
24153;SDS011;12312;53.362;-1.518;2023-02-22T15:39:18;2.38;;;1.50;;
24153;SDS011;12312;53.362;-1.518;2023-02-22T15:41:59;1.77;;;1.10;;
24153;SDS011;12312;53.362;-1.518;2023-02-22T15:44:39;28.15;;;14.75;;
24153;SDS011;12312;53.362;-1.518;2023-02-22T15:47:11;23.98;;;11.30;;
24153;SDS011;12312;53.362;-1.518;2023-02-22T15:49:42;10.05;;;5.95;;
24153;SDS011;12312;53.362;-1.518;2023-02-22T15:54:49;10.45;;;5.38;;
24153;SDS011;12312;53.362;-1.518;2023-02-22T15:57:20;20.45;;;10.18;;
24153;SDS011;12312;53.362;-1.518;2023-02-22T15:59:51;19.70;;;10.80;;
24153;SDS011;12312;53.362;-1.518;2023-02-22T16:02:20;27.48;;;13.43;;
24153;SDS011;12312;53.362;-1.518;2023-02-22T16:05:09;26.27;;;14.68;;
24153;SDS011;12312;53.362;-1.518;2023-02-22T16:07:38;35.72;;;17.35;;
24153;SDS011;12312;53.362;-1.518;2023-02-22T16:10:20;24.48;;;13.60;;
24153;SDS011;12312;53.362;-1.518;2023-02-22T16:12:48;23.85;;;11.82;;
24153;SDS011;12312;53.362;-1.518;2023-02-22T16:15:15;16.50;;;9.13;;
24153;SDS011;12312;53.362;-1.518;2023-02-22T16:17:44;17.30;;;8.55;;
24153;SDS011;12312;53.362;-1.518;2023-02-22T16:22:36;5.68;;;3.03;;
24153;SDS011;12312;53.362;-1.518;2023-02-22T16:27:48;3.00;;;1.67;;
24153;SDS011;12312;53.362;-1.518;2023-02-22T16:32:58;2.70;;;1.67;;
24153;SDS011;12312;53.362;-1.518;2023-02-22T16:35:29;4.93;;;3.10;;
24153;SDS011;12312;53.362;-1.518;2023-02-22T16:38:01;6.72;;;4.50;;
24153;SDS011;12312;53.362;-1.518;2023-02-22T16:40:35;5.20;;;2.75;;
24153;SDS011;12312;53.362;-1.518;2023-02-22T16:43:07;2.63;;;1.80;;
24153;SDS011;12312;53.362;-1.518;2023-02-22T16:45:36;2.08;;;1.50;;
24153;SDS011;12312;53.362;-1.518;2023-02-22T16:48:10;3.72;;;1.40;;
24153;SDS011;12312;53.362;-1.518;2023-02-22T16:50:39;2.05;;;1.50;;
24153;SDS011;12312;53.362;-1.518;2023-02-22T16:53:05;4.40;;;2.83;;
24153;SDS011;12312;53.362;-1.518;2023-02-22T16:55:31;5.18;;;2.80;;
24153;SDS011;12312;53.362;-1.518;2023-02-22T16:57:56;4.22;;;2.97;;
24153;SDS011;12312;53.362;-1.518;2023-02-22T17:00:25;4.65;;;3.58;;
24153;SDS011;12312;53.362;-1.518;2023-02-22T17:03:01;2.55;;;2.30;;
24153;SDS011;12312;53.362;-1.518;2023-02-22T17:05:30;3.05;;;2.70;;
24153;SDS011;12312;53.362;-1.518;2023-02-22T17:08:00;5.18;;;3.85;;
24153;SDS011;12312;53.362;-1.518;2023-02-22T17:10:26;3.00;;;2.47;;
24153;SDS011;12312;53.362;-1.518;2023-02-22T17:12:53;3.83;;;2.67;;
24153;SDS011;12312;53.362;-1.518;2023-02-22T17:15:21;5.65;;;4.82;;
24153;SDS011;12312;53.362;-1.518;2023-02-22T17:17:50;4.82;;;3.72;;
24153;SDS011;12312;53.362;-1.518;2023-02-22T17:20:16;6.30;;;3.35;;
24153;SDS011;12312;53.362;-1.518;2023-02-22T17:23:03;5.82;;;3.75;;
24153;SDS011;12312;53.362;-1.518;2023-02-22T17:25:39;4.78;;;4.28;;
24153;SDS011;12312;53.362;-1.518;2023-02-22T17:28:07;4.93;;;4.13;;
24153;SDS011;12312;53.362;-1.518;2023-02-22T17:30:33;4.80;;;3.80;;
24153;SDS011;12312;53.362;-1.518;2023-02-22T17:33:01;5.68;;;4.60;;